sensor_id;sensor_type;location;lat;lon;timestamp;pressure;altitude;pressure_sealevel;temperature;humidity
27437;BME280;14886;51.586;6.722;2023-07-31T00:04:47;1009.2;;;15.2;97.3
27437;BME280;14886;51.586;6.722;2023-07-31T00:05:47;1009.2;;;15.3;97.4
27437;BME280;14886;51.586;6.722;2023-07-31T00:06:47;1009.2;;;15.2;97.4
27437;BME280;14886;51.586;6.722;2023-07-31T00:07:48;1009.2;;;15.3;97.4
27437;BME280;14886;51.586;6.722;2023-07-31T00:08:48;1009.2;;;15.2;97.4
27437;BME280;14886;51.586;6.722;2023-07-31T00:09:48;1009.2;;;15.3;97.3
27437;BME280;14886;51.586;6.722;2023-07-31T00:12:48;1009.1;;;15.4;97.4
27437;BME280;14886;51.586;6.722;2023-07-31T00:15:49;1009.1;;;15.5;97.5
27437;BME280;14886;51.586;6.722;2023-07-31T00:17:49;1009.0;;;15.6;97.3
27437;BME280;14886;51.586;6.722;2023-07-31T00:18:49;1009.0;;;15.7;97.3
27437;BME280;14886;51.586;6.722;2023-07-31T00:20:49;1009.0;;;15.8;97.3
27437;BME280;14886;51.586;6.722;2023-07-31T00:23:50;1009.0;;;15.9;97.2
27437;BME280;14886;51.586;6.722;2023-07-31T00:27:50;1008.9;;;16.0;97.2
27437;BME280;14886;51.586;6.722;2023-07-31T00:35:51;1008.9;;;16.1;97.0
27437;BME280;14886;51.586;6.722;2023-07-31T00:53:53;1009.0;;;16.2;95.5
27437;BME280;14886;51.586;6.722;2023-07-31T00:56:53;1008.9;;;16.1;96.1
27437;BME280;14886;51.586;6.722;2023-07-31T01:04:54;1008.8;;;16.2;95.3
27437;BME280;14886;51.586;6.722;2023-07-31T01:15:04;1008.8;;;16.1;95.8
27437;BME280;14886;51.586;6.722;2023-07-31T01:15:55;1008.8;;;16.2;95.0
27437;BME280;14886;51.586;6.722;2023-07-31T01:33:58;1008.8;;;16.1;95.7
27437;BME280;14886;51.586;6.722;2023-07-31T01:37:58;1008.7;;;16.2;95.3
27437;BME280;14886;51.586;6.722;2023-07-31T01:38:58;1008.7;;;16.1;95.5
27437;BME280;14886;51.586;6.722;2023-07-31T01:46:59;1008.7;;;16.2;94.8
27437;BME280;14886;51.586;6.722;2023-07-31T01:48:59;1008.7;;;16.1;95.2
27437;BME280;14886;51.586;6.722;2023-07-31T02:05:01;1008.6;;;16.0;94.6
27437;BME280;14886;51.586;6.722;2023-07-31T02:06:01;1008.6;;;16.1;94.2
27437;BME280;14886;51.586;6.722;2023-07-31T02:08:01;1008.6;;;16.0;94.7
27437;BME280;14886;51.586;6.722;2023-07-31T02:10:01;1008.6;;;16.1;94.0
27437;BME280;14886;51.586;6.722;2023-07-31T02:11:01;1008.6;;;16.0;94.0
27437;BME280;14886;51.586;6.722;2023-07-31T02:20:03;1008.6;;;16.1;93.1
27437;BME280;14886;51.586;6.722;2023-07-31T02:24:03;1008.5;;;16.0;93.7
27437;BME280;14886;51.586;6.722;2023-07-31T02:37:04;1008.5;;;15.9;94.1
27437;BME280;14886;51.586;6.722;2023-07-31T02:38:04;1008.5;;;16.0;92.7
27437;BME280;14886;51.586;6.722;2023-07-31T02:41:05;1008.5;;;15.9;93.6
27437;BME280;14886;51.586;6.722;2023-07-31T02:43:05;1008.4;;;16.0;92.3
27437;BME280;14886;51.586;6.722;2023-07-31T02:45:05;1008.5;;;16.1;92.2
27437;BME280;14886;51.586;6.722;2023-07-31T02:48:05;1008.5;;;16.0;92.6
27437;BME280;14886;51.586;6.722;2023-07-31T02:50:06;1008.5;;;15.9;92.9
27437;BME280;14886;51.586;6.722;2023-07-31T02:51:06;1008.4;;;16.0;92.7
27437;BME280;14886;51.586;6.722;2023-07-31T02:54:06;1008.5;;;15.9;93.8
27437;BME280;14886;51.586;6.722;2023-07-31T02:57:06;1008.4;;;16.0;92.0
27437;BME280;14886;51.586;6.722;2023-07-31T03:04:07;1008.4;;;15.9;92.7
27437;BME280;14886;51.586;6.722;2023-07-31T03:05:07;1008.4;;;16.0;91.9
27437;BME280;14886;51.586;6.722;2023-07-31T03:07:07;1008.4;;;16.1;91.1
27437;BME280;14886;51.586;6.722;2023-07-31T03:09:08;1008.4;;;16.0;91.7
27437;BME280;14886;51.586;6.722;2023-07-31T03:12:08;1008.3;;;15.9;92.0
27437;BME280;14886;51.586;6.722;2023-07-31T03:13:08;1008.3;;;16.0;91.7
27437;BME280;14886;51.586;6.722;2023-07-31T03:18:09;1008.3;;;15.9;92.4
27437;BME280;14886;51.586;6.722;2023-07-31T03:20:09;1008.3;;;16.0;91.2
27437;BME280;14886;51.586;6.722;2023-07-31T03:30:10;1008.2;;;16.1;90.9
27437;BME280;14886;51.586;6.722;2023-07-31T03:31:10;1008.2;;;16.0;91.6
27437;BME280;14886;51.586;6.722;2023-07-31T03:35:11;1008.3;;;16.1;91.3
27437;BME280;14886;51.586;6.722;2023-07-31T03:36:11;1008.3;;;16.0;91.8
27437;BME280;14886;51.586;6.722;2023-07-31T03:39:11;1008.3;;;16.1;90.9
27437;BME280;14886;51.586;6.722;2023-07-31T03:42:11;1008.3;;;16.2;90.2
27437;BME280;14886;51.586;6.722;2023-07-31T03:45:12;1008.2;;;16.1;91.1
27437;BME280;14886;51.586;6.722;2023-07-31T03:47:12;1008.2;;;16.2;90.9
27437;BME280;14886;51.586;6.722;2023-07-31T03:49:12;1008.2;;;16.1;91.5
27437;BME280;14886;51.586;6.722;2023-07-31T03:50:12;1008.2;;;16.2;90.9
27437;BME280;14886;51.586;6.722;2023-07-31T03:51:13;1008.2;;;16.1;92.0
27437;BME280;14886;51.586;6.722;2023-07-31T03:58:13;1008.2;;;16.2;90.9
27437;BME280;14886;51.586;6.722;2023-07-31T04:01:14;1008.2;;;16.3;91.0
27437;BME280;14886;51.586;6.722;2023-07-31T04:05:14;1008.2;;;16.2;91.3
27437;BME280;14886;51.586;6.722;2023-07-31T04:06:14;1008.1;;;16.3;91.0
27437;BME280;14886;51.586;6.722;2023-07-31T04:10:15;1008.1;;;16.4;90.8
27437;BME280;14886;51.586;6.722;2023-07-31T04:17:17;1008.1;;;16.3;91.4
27437;BME280;14886;51.586;6.722;2023-07-31T04:18:16;1008.1;;;16.4;90.5
27437;BME280;14886;51.586;6.722;2023-07-31T04:22:16;1008.0;;;16.5;90.6
27437;BME280;14886;51.586;6.722;2023-07-31T04:26:17;1008.0;;;16.4;90.9
27437;BME280;14886;51.586;6.722;2023-07-31T04:30:17;1007.9;;;16.5;90.3
27437;BME280;14886;51.586;6.722;2023-07-31T04:32:18;1008.0;;;16.4;91.1
27437;BME280;14886;51.586;6.722;2023-07-31T04:33:18;1007.9;;;16.5;90.9
27437;BME280;14886;51.586;6.722;2023-07-31T04:35:18;1007.9;;;16.4;91.0
27437;BME280;14886;51.586;6.722;2023-07-31T04:41:19;1007.8;;;16.5;91.1
27437;BME280;14886;51.586;6.722;2023-07-31T04:47:19;1007.8;;;16.6;90.8
27437;BME280;14886;51.586;6.722;2023-07-31T04:58:21;1007.8;;;16.7;91.2
27437;BME280;14886;51.586;6.722;2023-07-31T05:00:21;1007.7;;;16.6;91.7
27437;BME280;14886;51.586;6.722;2023-07-31T05:01:21;1007.7;;;16.7;91.0
27437;BME280;14886;51.586;6.722;2023-07-31T05:06:21;1007.7;;;16.6;91.8
27437;BME280;14886;51.586;6.722;2023-07-31T05:07:22;1007.7;;;16.7;91.3
27437;BME280;14886;51.586;6.722;2023-07-31T05:08:22;1007.7;;;16.8;90.7
27437;BME280;14886;51.586;6.722;2023-07-31T05:11:22;1007.6;;;16.9;90.6
27437;BME280;14886;51.586;6.722;2023-07-31T05:12:22;1007.6;;;16.8;91.8
27437;BME280;14886;51.586;6.722;2023-07-31T05:15:23;1007.6;;;16.9;90.5
27437;BME280;14886;51.586;6.722;2023-07-31T05:16:23;1007.6;;;16.8;91.1
27437;BME280;14886;51.586;6.722;2023-07-31T05:19:23;1007.6;;;16.9;90.5
27437;BME280;14886;51.586;6.722;2023-07-31T05:22:23;1007.5;;;17.0;89.5
27437;BME280;14886;51.586;6.722;2023-07-31T05:24:24;1007.5;;;16.9;90.4
27437;BME280;14886;51.586;6.722;2023-07-31T05:27:24;1007.5;;;17.0;89.6
27437;BME280;14886;51.586;6.722;2023-07-31T05:30:25;1007.5;;;17.1;88.7
27437;BME280;14886;51.586;6.722;2023-07-31T05:48:27;1007.2;;;17.0;90.4
27437;BME280;14886;51.586;6.722;2023-07-31T05:49:27;1007.2;;;17.1;89.9
27437;BME280;14886;51.586;6.722;2023-07-31T05:58:28;1007.1;;;17.2;89.6
27437;BME280;14886;51.586;6.722;2023-07-31T05:59:28;1007.1;;;17.1;89.5
27437;BME280;14886;51.586;6.722;2023-07-31T06:00:28;1007.1;;;17.2;89.8
27437;BME280;14886;51.586;6.722;2023-07-31T06:05:29;1007.1;;;17.1;90.5
27437;BME280;14886;51.586;6.722;2023-07-31T06:08:29;1007.1;;;17.0;90.7
27437;BME280;14886;51.586;6.722;2023-07-31T06:11:30;1007.1;;;16.9;91.9
27437;BME280;14886;51.586;6.722;2023-07-31T06:13:30;1007.1;;;16.8;92.5
27437;BME280;14886;51.586;6.722;2023-07-31T06:15:30;1007.1;;;16.7;93.2
27437;BME280;14886;51.586;6.722;2023-07-31T06:16:30;1007.1;;;16.8;93.4
27437;BME280;14886;51.586;6.722;2023-07-31T06:17:30;1007.1;;;16.7;93.7
27437;BME280;14886;51.586;6.722;2023-07-31T06:18:31;1007.1;;;16.6;93.7
27437;BME280;14886;51.586;6.722;2023-07-31T06:29:32;1007.1;;;16.7;94.8
27437;BME280;14886;51.586;6.722;2023-07-31T06:35:32;1007.1;;;16.8;94.5
27437;BME280;14886;51.586;6.722;2023-07-31T06:36:33;1007.1;;;16.9;94.3
27437;BME280;14886;51.586;6.722;2023-07-31T06:38:33;1007.1;;;16.8;94.3
27437;BME280;14886;51.586;6.722;2023-07-31T06:39:33;1007.1;;;16.9;94.2
27437;BME280;14886;51.586;6.722;2023-07-31T06:48:34;1007.0;;;17.0;93.5
27437;BME280;14886;51.586;6.722;2023-07-31T06:49:34;1007.0;;;16.9;94.0
27437;BME280;14886;51.586;6.722;2023-07-31T06:53:35;1007.0;;;17.0;93.5
27437;BME280;14886;51.586;6.722;2023-07-31T06:54:35;1006.9;;;16.9;93.7
27437;BME280;14886;51.586;6.722;2023-07-31T06:56:35;1006.9;;;16.8;94.1
27437;BME280;14886;51.586;6.722;2023-07-31T06:57:35;1006.9;;;16.9;93.7
27437;BME280;14886;51.586;6.722;2023-07-31T07:00:35;1007.0;;;16.8;94.4
27437;BME280;14886;51.586;6.722;2023-07-31T07:01:36;1007.0;;;16.7;94.3
27437;BME280;14886;51.586;6.722;2023-07-31T07:02:36;1007.0;;;16.8;94.6
27437;BME280;14886;51.586;6.722;2023-07-31T07:03:36;1007.0;;;16.7;94.8
27437;BME280;14886;51.586;6.722;2023-07-31T07:05:36;1007.0;;;16.8;94.9
27437;BME280;14886;51.586;6.722;2023-07-31T07:08:36;1006.9;;;16.7;95.2
27437;BME280;14886;51.586;6.722;2023-07-31T07:09:36;1006.9;;;16.8;95.0
27437;BME280;14886;51.586;6.722;2023-07-31T07:10:37;1006.9;;;16.7;95.0
27437;BME280;14886;51.586;6.722;2023-07-31T07:11:37;1006.9;;;16.8;94.9
27437;BME280;14886;51.586;6.722;2023-07-31T07:13:37;1006.9;;;16.7;95.1
27437;BME280;14886;51.586;6.722;2023-07-31T07:16:37;1006.9;;;16.8;95.2
27437;BME280;14886;51.586;6.722;2023-07-31T07:17:38;1006.9;;;16.9;95.2
27437;BME280;14886;51.586;6.722;2023-07-31T07:18:38;1006.9;;;16.8;95.0
27437;BME280;14886;51.586;6.722;2023-07-31T07:20:38;1006.8;;;16.7;95.0
27437;BME280;14886;51.586;6.722;2023-07-31T07:27:39;1006.8;;;16.8;94.8
27437;BME280;14886;51.586;6.722;2023-07-31T07:38:40;1006.8;;;16.7;95.1
27437;BME280;14886;51.586;6.722;2023-07-31T07:42:41;1006.7;;;16.8;94.5
27437;BME280;14886;51.586;6.722;2023-07-31T07:43:41;1006.7;;;16.9;94.8
27437;BME280;14886;51.586;6.722;2023-07-31T07:47:41;1006.7;;;16.8;94.9
27437;BME280;14886;51.586;6.722;2023-07-31T07:49:42;1006.7;;;16.7;94.9
27437;BME280;14886;51.586;6.722;2023-07-31T07:50:42;1006.7;;;16.8;95.0
27437;BME280;14886;51.586;6.722;2023-07-31T07:51:42;1006.7;;;16.7;94.8
27437;BME280;14886;51.586;6.722;2023-07-31T07:55:42;1006.7;;;16.8;94.5
27437;BME280;14886;51.586;6.722;2023-07-31T07:57:42;1006.6;;;16.7;94.3
27437;BME280;14886;51.586;6.722;2023-07-31T07:59:43;1006.7;;;16.6;93.8
27437;BME280;14886;51.586;6.722;2023-07-31T08:09:44;1006.7;;;16.5;94.5
27437;BME280;14886;51.586;6.722;2023-07-31T08:15:45;1006.6;;;16.6;94.2
27437;BME280;14886;51.586;6.722;2023-07-31T08:16:45;1006.5;;;16.5;94.2
27437;BME280;14886;51.586;6.722;2023-07-31T08:17:46;1006.6;;;16.6;94.0
27437;BME280;14886;51.586;6.722;2023-07-31T08:19:45;1006.5;;;16.7;94.0
27437;BME280;14886;51.586;6.722;2023-07-31T08:25:46;1006.5;;;16.8;93.9
27437;BME280;14886;51.586;6.722;2023-07-31T08:31:47;1006.5;;;16.7;93.4
27437;BME280;14886;51.586;6.722;2023-07-31T08:35:47;1006.5;;;16.8;93.2
27437;BME280;14886;51.586;6.722;2023-07-31T08:36:47;1006.5;;;16.7;93.4
27437;BME280;14886;51.586;6.722;2023-07-31T08:38:20;1006.5;;;16.7;93.6
27437;BME280;14886;51.586;6.722;2023-07-31T08:43:49;1006.5;;;16.8;93.2
27437;BME280;14886;51.586;6.722;2023-07-31T08:46:48;1006.5;;;16.7;93.9
27437;BME280;14886;51.586;6.722;2023-07-31T08:49:49;1006.5;;;16.8;93.6
27437;BME280;14886;51.586;6.722;2023-07-31T08:51:49;1006.5;;;16.9;93.5
27437;BME280;14886;51.586;6.722;2023-07-31T08:55:50;1006.5;;;17.0;93.5
27437;BME280;14886;51.586;6.722;2023-07-31T08:57:50;1006.5;;;16.9;93.5
27437;BME280;14886;51.586;6.722;2023-07-31T09:03:50;1006.5;;;17.0;93.0
27437;BME280;14886;51.586;6.722;2023-07-31T09:06:51;1006.6;;;16.9;93.4
27437;BME280;14886;51.586;6.722;2023-07-31T09:07:51;1006.6;;;17.0;93.2
27437;BME280;14886;51.586;6.722;2023-07-31T09:08:51;1006.6;;;16.9;93.1
27437;BME280;14886;51.586;6.722;2023-07-31T09:09:51;1006.6;;;17.0;93.3
27437;BME280;14886;51.586;6.722;2023-07-31T09:11:51;1006.5;;;17.1;93.0
27437;BME280;14886;51.586;6.722;2023-07-31T09:12:51;1006.6;;;17.0;93.6
27437;BME280;14886;51.586;6.722;2023-07-31T09:13:52;1006.6;;;17.1;93.8
27437;BME280;14886;51.586;6.722;2023-07-31T09:15:52;1006.6;;;17.0;93.7
27437;BME280;14886;51.586;6.722;2023-07-31T09:18:53;1006.5;;;17.1;93.5
27437;BME280;14886;51.586;6.722;2023-07-31T09:22:53;1006.5;;;17.0;93.7
27437;BME280;14886;51.586;6.722;2023-07-31T09:23:53;1006.5;;;17.1;93.6
27437;BME280;14886;51.586;6.722;2023-07-31T09:26:53;1006.5;;;17.0;94.2
27437;BME280;14886;51.586;6.722;2023-07-31T09:27:54;1006.5;;;17.1;94.1
27437;BME280;14886;51.586;6.722;2023-07-31T09:29:58;1006.4;;;17.3;94.1
27437;BME280;14886;51.586;6.722;2023-07-31T09:30:53;1006.4;;;17.2;94.3
27437;BME280;14886;51.586;6.722;2023-07-31T09:31:54;1006.5;;;17.1;94.2
27437;BME280;14886;51.586;6.722;2023-07-31T09:35:54;1006.4;;;17.2;94.2
27437;BME280;14886;51.586;6.722;2023-07-31T09:36:54;1006.4;;;17.3;94.0
27437;BME280;14886;51.586;6.722;2023-07-31T09:39:55;1006.4;;;17.4;93.9
27437;BME280;14886;51.586;6.722;2023-07-31T09:40:56;1006.3;;;17.3;93.9
27437;BME280;14886;51.586;6.722;2023-07-31T09:41:55;1006.4;;;17.2;93.9
27437;BME280;14886;51.586;6.722;2023-07-31T09:42:56;1006.4;;;17.3;94.6
27437;BME280;14886;51.586;6.722;2023-07-31T09:43:55;1006.4;;;17.4;93.7
27437;BME280;14886;51.586;6.722;2023-07-31T09:44:55;1006.3;;;17.5;93.4
27437;BME280;14886;51.586;6.722;2023-07-31T09:45:55;1006.3;;;17.4;93.4
27437;BME280;14886;51.586;6.722;2023-07-31T09:46:55;1006.3;;;17.2;93.8
27437;BME280;14886;51.586;6.722;2023-07-31T09:47:56;1006.3;;;17.1;93.8
27437;BME280;14886;51.586;6.722;2023-07-31T09:49:56;1006.3;;;17.2;94.0
27437;BME280;14886;51.586;6.722;2023-07-31T09:52:56;1006.3;;;17.3;93.3
27437;BME280;14886;51.586;6.722;2023-07-31T09:53:56;1006.3;;;17.4;93.2
27437;BME280;14886;51.586;6.722;2023-07-31T09:54:56;1006.3;;;17.3;93.3
27437;BME280;14886;51.586;6.722;2023-07-31T09:55:57;1006.3;;;17.4;93.4
27437;BME280;14886;51.586;6.722;2023-07-31T10:01:57;1006.2;;;17.6;93.1
27437;BME280;14886;51.586;6.722;2023-07-31T10:03:57;1006.2;;;17.7;92.9
27437;BME280;14886;51.586;6.722;2023-07-31T10:04:57;1006.2;;;17.6;92.8
27437;BME280;14886;51.586;6.722;2023-07-31T10:05:57;1006.2;;;17.5;93.2
27437;BME280;14886;51.586;6.722;2023-07-31T10:06:58;1006.2;;;17.4;93.0
27437;BME280;14886;51.586;6.722;2023-07-31T10:07:58;1006.2;;;17.5;93.2
27437;BME280;14886;51.586;6.722;2023-07-31T10:09:58;1006.2;;;17.4;93.2
27437;BME280;14886;51.586;6.722;2023-07-31T10:10:58;1006.2;;;17.3;93.3
27437;BME280;14886;51.586;6.722;2023-07-31T10:11:59;1006.2;;;17.4;93.6
27437;BME280;14886;51.586;6.722;2023-07-31T10:12:59;1006.2;;;17.3;93.0
27437;BME280;14886;51.586;6.722;2023-07-31T10:13:58;1006.2;;;17.5;93.2
27437;BME280;14886;51.586;6.722;2023-07-31T10:15:59;1006.2;;;17.4;92.8
27437;BME280;14886;51.586;6.722;2023-07-31T10:21:59;1006.2;;;17.5;93.0
27437;BME280;14886;51.586;6.722;2023-07-31T10:22:59;1006.2;;;17.4;92.7
27437;BME280;14886;51.586;6.722;2023-07-31T10:24:00;1006.2;;;17.5;92.5
27437;BME280;14886;51.586;6.722;2023-07-31T10:26:00;1006.2;;;17.4;93.0
27437;BME280;14886;51.586;6.722;2023-07-31T10:27:00;1006.2;;;17.3;93.7
27437;BME280;14886;51.586;6.722;2023-07-31T10:31:01;1006.2;;;17.4;92.5
27437;BME280;14886;51.586;6.722;2023-07-31T10:33:01;1006.2;;;17.6;92.7
27437;BME280;14886;51.586;6.722;2023-07-31T10:34:01;1006.2;;;17.7;92.5
27437;BME280;14886;51.586;6.722;2023-07-31T10:35:01;1006.1;;;17.8;92.4
27437;BME280;14886;51.586;6.722;2023-07-31T10:38:09;1006.1;;;17.7;92.1
27437;BME280;14886;51.586;6.722;2023-07-31T10:42:09;1006.1;;;17.9;90.9
27437;BME280;14886;51.586;6.722;2023-07-31T10:45:03;1006.1;;;18.0;91.5
27437;BME280;14886;51.586;6.722;2023-07-31T10:46:05;1006.1;;;17.9;91.7
27437;BME280;14886;51.586;6.722;2023-07-31T10:47:02;1006.1;;;18.0;91.3
27437;BME280;14886;51.586;6.722;2023-07-31T10:49:03;1006.1;;;18.1;91.5
27437;BME280;14886;51.586;6.722;2023-07-31T10:52:03;1006.1;;;18.4;90.0
27437;BME280;14886;51.586;6.722;2023-07-31T10:53:03;1006.1;;;18.3;90.4
27437;BME280;14886;51.586;6.722;2023-07-31T10:56:04;1006.1;;;18.2;90.2
27437;BME280;14886;51.586;6.722;2023-07-31T11:02:04;1006.1;;;18.3;90.0
27437;BME280;14886;51.586;6.722;2023-07-31T11:03:05;1006.1;;;18.2;90.1
27437;BME280;14886;51.586;6.722;2023-07-31T11:10:06;1006.1;;;18.1;90.3
27437;BME280;14886;51.586;6.722;2023-07-31T11:11:06;1006.0;;;18.0;89.9
27437;BME280;14886;51.586;6.722;2023-07-31T11:12:06;1006.0;;;18.1;90.0
27437;BME280;14886;51.586;6.722;2023-07-31T11:15:06;1006.1;;;18.2;90.3
27437;BME280;14886;51.586;6.722;2023-07-31T11:21:07;1006.0;;;18.1;90.6
27437;BME280;14886;51.586;6.722;2023-07-31T11:25:07;1006.0;;;17.9;91.1
27437;BME280;14886;51.586;6.722;2023-07-31T11:28:08;1006.1;;;18.0;90.9
27437;BME280;14886;51.586;6.722;2023-07-31T11:29:10;1006.1;;;18.1;90.5
27437;BME280;14886;51.586;6.722;2023-07-31T11:30:08;1006.1;;;18.2;90.5
27437;BME280;14886;51.586;6.722;2023-07-31T11:31:08;1006.1;;;18.4;89.6
27437;BME280;14886;51.586;6.722;2023-07-31T11:32:15;1006.0;;;18.6;89.5
27437;BME280;14886;51.586;6.722;2023-07-31T11:34:08;1006.0;;;18.5;89.0
27437;BME280;14886;51.586;6.722;2023-07-31T11:35:11;1006.0;;;18.6;89.1
27437;BME280;14886;51.586;6.722;2023-07-31T11:37:08;1006.0;;;18.7;89.2
27437;BME280;14886;51.586;6.722;2023-07-31T11:39:09;1006.0;;;18.5;89.2
27437;BME280;14886;51.586;6.722;2023-07-31T11:40:10;1006.0;;;18.6;89.0
27437;BME280;14886;51.586;6.722;2023-07-31T11:41:09;1006.0;;;18.7;88.8
27437;BME280;14886;51.586;6.722;2023-07-31T11:42:09;1006.0;;;18.8;88.5
27437;BME280;14886;51.586;6.722;2023-07-31T11:46:10;1006.0;;;18.6;89.8
27437;BME280;14886;51.586;6.722;2023-07-31T11:48:10;1006.0;;;18.5;90.4
27437;BME280;14886;51.586;6.722;2023-07-31T11:50:10;1006.0;;;18.3;89.9
27437;BME280;14886;51.586;6.722;2023-07-31T11:51:10;1006.0;;;18.4;90.1
27437;BME280;14886;51.586;6.722;2023-07-31T11:52:10;1006.0;;;18.5;90.1
27437;BME280;14886;51.586;6.722;2023-07-31T11:53:10;1006.0;;;18.6;89.6
27437;BME280;14886;51.586;6.722;2023-07-31T11:54:10;1006.0;;;18.7;89.6
27437;BME280;14886;51.586;6.722;2023-07-31T11:56:12;1006.0;;;18.6;89.6
27437;BME280;14886;51.586;6.722;2023-07-31T11:57:11;1006.0;;;18.5;89.4
27437;BME280;14886;51.586;6.722;2023-07-31T11:59:11;1006.0;;;18.6;89.6
27437;BME280;14886;51.586;6.722;2023-07-31T12:01:11;1006.0;;;18.5;89.5
27437;BME280;14886;51.586;6.722;2023-07-31T12:02:11;1006.0;;;18.6;89.4
27437;BME280;14886;51.586;6.722;2023-07-31T12:03:11;1005.9;;;18.5;90.2
27437;BME280;14886;51.586;6.722;2023-07-31T12:06:12;1005.9;;;18.4;89.7
27437;BME280;14886;51.586;6.722;2023-07-31T12:07:12;1005.9;;;18.5;89.7
27437;BME280;14886;51.586;6.722;2023-07-31T12:08:12;1005.9;;;18.4;89.9
27437;BME280;14886;51.586;6.722;2023-07-31T12:15:14;1005.9;;;18.5;88.9
27437;BME280;14886;51.586;6.722;2023-07-31T12:18:14;1005.9;;;18.7;88.8
27437;BME280;14886;51.586;6.722;2023-07-31T12:19:14;1005.9;;;18.6;88.9
27437;BME280;14886;51.586;6.722;2023-07-31T12:20:14;1005.9;;;18.7;88.9
27437;BME280;14886;51.586;6.722;2023-07-31T12:22:14;1005.9;;;18.6;88.9
27437;BME280;14886;51.586;6.722;2023-07-31T12:26:15;1005.8;;;18.5;89.3
27437;BME280;14886;51.586;6.722;2023-07-31T12:31:16;1005.8;;;18.8;88.5
27437;BME280;14886;51.586;6.722;2023-07-31T12:32:19;1005.8;;;18.9;88.1
27437;BME280;14886;51.586;6.722;2023-07-31T12:33:15;1005.8;;;18.8;87.9
27437;BME280;14886;51.586;6.722;2023-07-31T12:34:16;1005.8;;;18.9;87.8
27437;BME280;14886;51.586;6.722;2023-07-31T12:35:22;1005.8;;;19.1;87.6
27437;BME280;14886;51.586;6.722;2023-07-31T12:36:17;1005.8;;;19.2;87.6
27437;BME280;14886;51.586;6.722;2023-07-31T12:38:16;1005.8;;;19.4;86.5
27437;BME280;14886;51.586;6.722;2023-07-31T12:40:16;1005.7;;;19.3;86.0
27437;BME280;14886;51.586;6.722;2023-07-31T12:41:17;1005.7;;;19.4;86.2
27437;BME280;14886;51.586;6.722;2023-07-31T12:42:17;1005.7;;;19.2;86.3
27437;BME280;14886;51.586;6.722;2023-07-31T12:43:17;1005.8;;;19.3;86.9
27437;BME280;14886;51.586;6.722;2023-07-31T12:45:17;1005.8;;;19.1;87.5
27437;BME280;14886;51.586;6.722;2023-07-31T12:47:17;1005.8;;;19.0;88.8
27437;BME280;14886;51.586;6.722;2023-07-31T12:50:18;1005.8;;;18.9;89.2
27437;BME280;14886;51.586;6.722;2023-07-31T12:51:18;1005.7;;;18.7;89.8
27437;BME280;14886;51.586;6.722;2023-07-31T12:54:18;1005.7;;;18.6;90.6
27437;BME280;14886;51.586;6.722;2023-07-31T12:55:18;1005.7;;;18.5;90.5
27437;BME280;14886;51.586;6.722;2023-07-31T12:56:18;1005.7;;;18.6;90.4
27437;BME280;14886;51.586;6.722;2023-07-31T12:58:19;1005.7;;;18.5;90.5
27437;BME280;14886;51.586;6.722;2023-07-31T12:59:19;1005.6;;;18.4;90.1
27437;BME280;14886;51.586;6.722;2023-07-31T13:00:19;1005.5;;;18.5;90.6
27437;BME280;14886;51.586;6.722;2023-07-31T13:03:19;1005.4;;;18.4;91.2
27437;BME280;14886;51.586;6.722;2023-07-31T13:08:20;1005.3;;;18.3;91.2
27437;BME280;14886;51.586;6.722;2023-07-31T13:09:20;1005.4;;;18.4;90.9
27437;BME280;14886;51.586;6.722;2023-07-31T13:10:21;1005.3;;;18.6;91.5
27437;BME280;14886;51.586;6.722;2023-07-31T13:13:21;1005.2;;;18.5;91.0
27437;BME280;14886;51.586;6.722;2023-07-31T13:15:21;1005.2;;;18.4;91.4
27437;BME280;14886;51.586;6.722;2023-07-31T13:20:22;1005.2;;;18.3;92.1
27437;BME280;14886;51.586;6.722;2023-07-31T13:21:22;1005.2;;;18.2;91.9
27437;BME280;14886;51.586;6.722;2023-07-31T13:25:22;1005.1;;;18.3;92.3
27437;BME280;14886;51.586;6.722;2023-07-31T13:26:22;1005.1;;;18.2;92.2
27437;BME280;14886;51.586;6.722;2023-07-31T13:34:23;1005.0;;;18.3;91.6
27437;BME280;14886;51.586;6.722;2023-07-31T13:37:24;1005.0;;;18.4;91.8
27437;BME280;14886;51.586;6.722;2023-07-31T13:38:24;1005.0;;;18.5;91.9
27437;BME280;14886;51.586;6.722;2023-07-31T13:39:24;1005.0;;;18.4;91.9
27437;BME280;14886;51.586;6.722;2023-07-31T13:40:24;1005.0;;;18.3;91.6
27437;BME280;14886;51.586;6.722;2023-07-31T13:41:24;1004.9;;;18.4;91.8
27437;BME280;14886;51.586;6.722;2023-07-31T13:42:24;1004.9;;;18.3;92.4
27437;BME280;14886;51.586;6.722;2023-07-31T13:44:25;1004.9;;;18.4;92.1
27437;BME280;14886;51.586;6.722;2023-07-31T13:53:26;1005.0;;;18.5;91.6
27437;BME280;14886;51.586;6.722;2023-07-31T13:54:26;1005.0;;;18.6;91.3
27437;BME280;14886;51.586;6.722;2023-07-31T13:55:26;1005.0;;;18.7;90.9
27437;BME280;14886;51.586;6.722;2023-07-31T13:57:26;1005.0;;;18.8;89.6
27437;BME280;14886;51.586;6.722;2023-07-31T14:00:26;1005.0;;;19.0;89.4
27437;BME280;14886;51.586;6.722;2023-07-31T14:01:27;1005.0;;;19.2;89.1
27437;BME280;14886;51.586;6.722;2023-07-31T14:02:27;1005.0;;;19.3;88.7
27437;BME280;14886;51.586;6.722;2023-07-31T14:03:27;1005.0;;;19.4;88.1
27437;BME280;14886;51.586;6.722;2023-07-31T14:04:27;1005.0;;;19.8;87.1
27437;BME280;14886;51.586;6.722;2023-07-31T14:05:27;1004.9;;;19.9;86.6
27437;BME280;14886;51.586;6.722;2023-07-31T14:06:27;1004.9;;;19.8;86.8
27437;BME280;14886;51.586;6.722;2023-07-31T14:07:27;1004.9;;;19.9;86.2
27437;BME280;14886;51.586;6.722;2023-07-31T14:08:27;1004.9;;;20.2;86.0
27437;BME280;14886;51.586;6.722;2023-07-31T14:10:28;1004.9;;;20.3;85.3
27437;BME280;14886;51.586;6.722;2023-07-31T14:11:28;1004.9;;;20.6;83.3
27437;BME280;14886;51.586;6.722;2023-07-31T14:12:28;1004.9;;;21.1;82.7
27437;BME280;14886;51.586;6.722;2023-07-31T14:13:28;1004.8;;;20.9;83.1
27437;BME280;14886;51.586;6.722;2023-07-31T14:14:28;1004.8;;;20.4;84.8
27437;BME280;14886;51.586;6.722;2023-07-31T14:15:28;1004.8;;;20.2;86.0
27437;BME280;14886;51.586;6.722;2023-07-31T14:16:28;1004.8;;;20.0;86.3
27437;BME280;14886;51.586;6.722;2023-07-31T14:17:29;1004.8;;;19.9;86.0
27437;BME280;14886;51.586;6.722;2023-07-31T14:18:29;1004.8;;;19.8;86.0
27437;BME280;14886;51.586;6.722;2023-07-31T14:21:29;1004.7;;;19.6;87.4
27437;BME280;14886;51.586;6.722;2023-07-31T14:22:29;1004.7;;;19.5;87.0
27437;BME280;14886;51.586;6.722;2023-07-31T14:23:29;1004.7;;;19.6;86.6
27437;BME280;14886;51.586;6.722;2023-07-31T14:24:29;1004.6;;;19.7;87.1
27437;BME280;14886;51.586;6.722;2023-07-31T14:25:29;1004.6;;;19.8;86.6
27437;BME280;14886;51.586;6.722;2023-07-31T14:28:30;1004.6;;;19.7;85.5
27437;BME280;14886;51.586;6.722;2023-07-31T14:32:30;1004.5;;;19.6;86.4
27437;BME280;14886;51.586;6.722;2023-07-31T14:33:30;1004.6;;;19.5;86.3
27437;BME280;14886;51.586;6.722;2023-07-31T14:34:31;1004.5;;;19.4;86.3
27437;BME280;14886;51.586;6.722;2023-07-31T14:37:36;1004.6;;;19.5;86.8
27437;BME280;14886;51.586;6.722;2023-07-31T14:39:31;1004.6;;;19.4;87.2
27437;BME280;14886;51.586;6.722;2023-07-31T14:44:32;1004.6;;;19.3;87.1
27437;BME280;14886;51.586;6.722;2023-07-31T14:45:32;1004.7;;;19.2;87.2
27437;BME280;14886;51.586;6.722;2023-07-31T14:47:32;1004.7;;;19.1;88.0
27437;BME280;14886;51.586;6.722;2023-07-31T14:48:32;1004.7;;;19.0;88.2